Airport View

Enter AWOS ICAO identifier for current METAR.

ex. KFNL

KNHK 261052Z 30007KT 10SM FEW260 23/19 A3006 RMK AO2 SLP180 T02330189

26 Jun 2019 11:49

Other Area AWOS: K2W6 - KNUI - KCGE - KTGI

TAF KNHK 2607/2707 VRB06KT 9999 FEW050 FEW260 QNH2995INS BECMG 2617/2619 VRB06KT 9999 FEW050 SCT260 QNH3005INS BECMG 2621/2623 VRB06KT 9999 FEW040 BKN250 QNH3003INS AUTOMATED SENSOR METWATCH 2607 TIL 2608 T22/2610Z T31/2621Z FN00194